Time;durP1;ratioP1;P1;durP2;ratioP2;P2;SDS_P1;SDS_P2;PMS_P1;PMS_P2;Temp;Humidity;BMP_temperature;BMP_pressure;BME280_temperature;BME280_humidity;BME280_pressure;Samples;Min_cycle;Max_cycle;Signal;HPM_P1;HPM_P2
2023/04/09 00:01:45;;;;;;;;;;;18.40;47.80;;;;;;5073733;28;19961;-54
2023/04/09 00:04:11;;;;;;;;;;;18.40;47.90;;;;;;5075404;28;20011;-54
2023/04/09 00:06:36;;;;;;;;;;;18.40;48.00;;;;;;5060800;28;19919;-54
2023/04/09 00:09:02;;;;;;;;;;;18.40;48.60;;;;;;5062351;28;19912;-54
2023/04/09 00:11:27;;;;;;;;;;;18.40;48.00;;;;;;5071556;28;19908;-54
2023/04/09 00:13:52;;;;;;;;;;;18.30;47.90;;;;;;5074002;28;20416;-54
2023/04/09 00:16:18;;;;;;;;;;;18.30;48.00;;;;;;5090683;28;20076;-56
2023/04/09 00:18:43;;;;;;;;;;;18.30;48.00;;;;;;5071521;28;19969;-55
2023/04/09 00:21:09;;;;;;;;;;;18.30;48.00;;;;;;5068544;28;19912;-54
2023/04/09 00:23:35;;;;;;;;;;;18.30;48.10;;;;;;5070440;28;20307;-54
2023/04/09 00:26:00;;;;;;;;;;;18.30;48.10;;;;;;5070797;28;19913;-54
2023/04/09 00:28:26;;;;;;;;;;;18.30;48.10;;;;;;5073923;28;20007;-54
2023/04/09 00:30:51;;;;;;;;;;;18.30;48.70;;;;;;5066787;28;19920;-54
2023/04/09 00:33:17;;;;;;;;;;;18.20;48.10;;;;;;5070450;28;19909;-54
2023/04/09 00:35:42;;;;;;;;;;;18.20;48.10;;;;;;5071255;28;19946;-54
2023/04/09 00:38:08;;;;;;;;;;;18.20;48.20;;;;;;5085098;28;19928;-54
2023/04/09 00:40:33;;;;;;;;;;;18.20;48.20;;;;;;5079783;28;19926;-54
2023/04/09 00:42:58;;;;;;;;;;;18.20;48.20;;;;;;5074378;28;19916;-54
2023/04/09 00:45:24;;;;;;;;;;;18.20;48.20;;;;;;5074489;28;19920;-54
2023/04/09 00:47:50;;;;;;;;;;;18.10;48.20;;;;;;5072755;28;19912;-54
2023/04/09 00:50:15;;;;;;;;;;;18.10;48.10;;;;;;5075188;28;19912;-54
2023/04/09 00:52:41;;;;;;;;;;;18.10;48.20;;;;;;5074987;28;19973;-54
2023/04/09 00:55:07;;;;;;;;;;;18.10;48.20;;;;;;5066675;28;19919;-54
2023/04/09 00:57:32;;;;;;;;;;;18.10;48.20;;;;;;5075454;28;20003;-54
2023/04/09 00:59:58;;;;;;;;;;;18.10;48.30;;;;;;5069122;28;19916;-55
2023/04/09 01:02:23;;;;;;;;;;;18.10;48.30;;;;;;5063459;28;19974;-54
2023/04/09 01:04:48;;;;;;;;;;;18.10;48.30;;;;;;5094934;28;19908;-54
2023/04/09 01:07:33;;;;;;;;;;;18.10;48.30;;;;;;5076300;28;19916;-54
2023/04/09 01:10:00;;;;;;;;;;;18.10;48.30;;;;;;5073321;28;19909;-54
2023/04/09 01:12:31;;;;;;;;;;;18.10;48.30;;;;;;5073283;28;19956;-54
2023/04/09 01:15:07;;;;;;;;;;;18.10;48.20;;;;;;5081199;28;19920;-54
2023/04/09 01:17:45;;;;;;;;;;;18.20;48.00;;;;;;5068639;28;20194;-54
2023/04/09 01:20:12;;;;;;;;;;;18.60;47.70;;;;;;5089735;28;19912;-54
2023/04/09 01:22:56;;;;;;;;;;;18.90;47.20;;;;;;5073300;28;19912;-54
2023/04/09 01:25:27;;;;;;;;;;;19.10;46.60;;;;;;5074072;28;19965;-54
2023/04/09 01:28:08;;;;;;;;;;;19.40;46.00;;;;;;5081936;28;19912;-54
2023/04/09 01:30:33;;;;;;;;;;;19.90;45.30;;;;;;5064658;28;19917;-54
2023/04/09 01:32:59;;;;;;;;;;;20.40;44.40;;;;;;5067748;28;20434;-55
2023/04/09 01:35:24;;;;;;;;;;;20.80;43.50;;;;;;5069667;28;20383;-54
2023/04/09 01:37:50;;;;;;;;;;;21.10;42.80;;;;;;5069455;28;20359;-54
2023/04/09 01:40:15;;;;;;;;;;;21.40;42.30;;;;;;5081031;28;19961;-55
2023/04/09 01:42:41;;;;;;;;;;;21.50;42.00;;;;;;5091674;28;20352;-54
2023/04/09 01:45:07;;;;;;;;;;;21.50;41.90;;;;;;5072945;28;20309;-54
2023/04/09 01:47:32;;;;;;;;;;;21.40;42.10;;;;;;5073922;28;20269;-54
2023/04/09 01:49:57;;;;;;;;;;;21.20;42.40;;;;;;5073361;28;20358;-54
2023/04/09 01:52:23;;;;;;;;;;;21.00;42.80;;;;;;5070748;28;19919;-55
2023/04/09 01:54:48;;;;;;;;;;;20.70;43.20;;;;;;5065102;28;20031;-54
2023/04/09 01:57:14;;;;;;;;;;;20.60;43.60;;;;;;5054611;28;19970;-54
2023/04/09 01:59:39;;;;;;;;;;;20.40;43.90;;;;;;5068224;28;19921;-54
2023/04/09 02:02:08;;;;;;;;;;;20.30;44.20;;;;;;5073958;28;19915;-54
2023/04/09 02:04:38;;;;;;;;;;;20.20;44.50;;;;;;5074928;28;19944;-54
2023/04/09 02:07:12;;;;;;;;;;;20.10;44.50;;;;;;5089215;28;19908;-54
2023/04/09 02:09:38;;;;;;;;;;;20.00;44.60;;;;;;5059518;28;20458;-54
2023/04/09 02:12:04;;;;;;;;;;;19.90;44.70;;;;;;5069463;28;20261;-54
2023/04/09 02:14:30;;;;;;;;;;;19.80;45.00;;;;;;5072666;28;19908;-54
2023/04/09 02:16:56;;;;;;;;;;;19.80;45.00;;;;;;5076103;28;20285;-54
2023/04/09 02:19:21;;;;;;;;;;;19.70;45.20;;;;;;5075046;28;20306;-54
2023/04/09 02:21:46;;;;;;;;;;;19.70;45.20;;;;;;5077285;28;19916;-54
2023/04/09 02:24:12;;;;;;;;;;;19.80;45.20;;;;;;5064076;28;19924;-55
2023/04/09 02:26:37;;;;;;;;;;;19.90;45.00;;;;;;5070008;28;19913;-54
2023/04/09 02:29:03;;;;;;;;;;;20.10;44.50;;;;;;5073483;28;19908;-54
2023/04/09 02:31:28;;;;;;;;;;;20.30;44.40;;;;;;5072533;28;20011;-54
2023/04/09 02:33:54;;;;;;;;;;;20.40;44.10;;;;;;5075089;28;19921;-54
2023/04/09 02:36:19;;;;;;;;;;;20.50;44.00;;;;;;5072755;28;19939;-54
2023/04/09 02:38:45;;;;;;;;;;;20.40;43.90;;;;;;5060905;28;19921;-54
2023/04/09 02:41:10;;;;;;;;;;;20.50;43.90;;;;;;5063196;28;20003;-54
2023/04/09 02:43:36;;;;;;;;;;;20.50;43.80;;;;;;5071885;28;19995;-54
2023/04/09 02:46:01;;;;;;;;;;;20.50;44.40;;;;;;5080069;28;19919;-54
2023/04/09 02:48:27;;;;;;;;;;;20.50;43.70;;;;;;5093371;28;19947;-54
2023/04/09 02:50:52;;;;;;;;;;;20.40;43.80;;;;;;5083056;28;19917;-54
2023/04/09 02:53:20;;;;;;;;;;;20.40;43.90;;;;;;5050985;28;19913;-54
2023/04/09 02:55:45;;;;;;;;;;;20.30;44.00;;;;;;5069765;28;19916;-54
2023/04/09 02:58:11;;;;;;;;;;;20.20;44.20;;;;;;5071783;28;19912;-54
2023/04/09 03:00:36;;;;;;;;;;;20.20;44.30;;;;;;5069286;28;20392;-54
2023/04/09 03:03:02;;;;;;;;;;;20.10;44.40;;;;;;5088267;28;20425;-54
2023/04/09 03:05:27;;;;;;;;;;;20.10;44.50;;;;;;5071256;28;19916;-54
2023/04/09 03:07:53;;;;;;;;;;;20.10;44.40;;;;;;5064552;28;19912;-55
2023/04/09 03:10:18;;;;;;;;;;;20.10;44.40;;;;;;5076410;28;20011;-54
2023/04/09 03:12:44;;;;;;;;;;;20.20;44.50;;;;;;5072594;28;19912;-54
2023/04/09 03:15:09;;;;;;;;;;;20.20;44.30;;;;;;5070274;28;19912;-54
2023/04/09 03:17:35;;;;;;;;;;;20.20;44.10;;;;;;5056458;28;20007;-55
2023/04/09 03:20:00;;;;;;;;;;;20.20;44.10;;;;;;5072210;28;20366;-54
2023/04/09 03:22:26;;;;;;;;;;;20.20;44.10;;;;;;5077508;28;19921;-54
2023/04/09 03:24:51;;;;;;;;;;;20.20;44.00;;;;;;5072096;28;20394;-54
2023/04/09 03:27:17;;;;;;;;;;;20.30;44.10;;;;;;5070781;28;19916;-54
2023/04/09 03:29:42;;;;;;;;;;;20.30;44.00;;;;;;5059696;28;19928;-54
2023/04/09 03:32:08;;;;;;;;;;;20.30;44.10;;;;;;5069422;28;19967;-54
2023/04/09 03:34:33;;;;;;;;;;;20.30;44.10;;;;;;5080942;28;19943;-54
2023/04/09 03:36:59;;;;;;;;;;;20.30;44.10;;;;;;5080750;28;19916;-55
2023/04/09 03:39:24;;;;;;;;;;;20.30;44.00;;;;;;5073224;28;20023;-54
2023/04/09 03:41:50;;;;;;;;;;;20.30;44.00;;;;;;5071870;28;19920;-55
2023/04/09 03:44:15;;;;;;;;;;;20.40;43.90;;;;;;5056360;28;19919;-54
2023/04/09 03:46:41;;;;;;;;;;;20.40;43.60;;;;;;5065217;28;19963;-55
2023/04/09 03:49:06;;;;;;;;;;;20.40;43.50;;;;;;5071271;28;20354;-54
2023/04/09 03:51:32;;;;;;;;;;;20.50;43.60;;;;;;5070101;28;20003;-54
2023/04/09 03:53:57;;;;;;;;;;;20.40;43.50;;;;;;5063264;28;19965;-54
2023/04/09 03:56:22;;;;;;;;;;;20.40;43.60;;;;;;5060072;28;19966;-54
2023/04/09 03:58:48;;;;;;;;;;;20.40;43.70;;;;;;5063133;28;19916;-54
2023/04/09 04:01:14;;;;;;;;;;;20.40;43.70;;;;;;5071038;28;19926;-54
2023/04/09 04:03:39;;;;;;;;;;;20.40;43.60;;;;;;5071415;28;19956;-54
2023/04/09 04:06:04;;;;;;;;;;;20.40;43.70;;;;;;5071355;28;19912;-54
2023/04/09 04:08:30;;;;;;;;;;;20.40;43.70;;;;;;5059145;28;19913;-54
2023/04/09 04:10:55;;;;;;;;;;;20.40;43.60;;;;;;5053217;28;20380;-54
2023/04/09 04:13:21;;;;;;;;;;;20.40;43.70;;;;;;5078047;28;19913;-55
2023/04/09 04:15:46;;;;;;;;;;;20.40;43.80;;;;;;5070618;28;20391;-54
2023/04/09 04:18:12;;;;;;;;;;;20.40;43.90;;;;;;5075851;28;20411;-54
2023/04/09 04:20:37;;;;;;;;;;;20.40;43.90;;;;;;5084679;28;20061;-54
2023/04/09 04:23:03;;;;;;;;;;;20.30;43.90;;;;;;5075434;28;19916;-54
2023/04/09 04:25:28;;;;;;;;;;;20.30;43.90;;;;;;5061982;28;20278;-54
2023/04/09 04:27:54;;;;;;;;;;;20.30;44.10;;;;;;5059255;28;19916;-54
2023/04/09 04:30:20;;;;;;;;;;;20.30;44.30;;;;;;5074386;28;20281;-54
2023/04/09 04:32:46;;;;;;;;;;;20.20;44.30;;;;;;5068191;28;19916;-54
2023/04/09 04:35:11;;;;;;;;;;;20.20;44.30;;;;;;5072090;28;19919;-54
2023/04/09 04:37:37;;;;;;;;;;;20.20;44.30;;;;;;5074477;28;20022;-54
2023/04/09 04:40:04;;;;;;;;;;;20.30;44.30;;;;;;5074661;28;19930;-54
2023/04/09 04:42:29;;;;;;;;;;;20.30;44.10;;;;;;5081489;28;19916;-54
2023/04/09 04:44:55;;;;;;;;;;;20.40;43.90;;;;;;5084352;28;20285;-54
2023/04/09 04:47:20;;;;;;;;;;;20.50;43.80;;;;;;5064967;28;19936;-54
2023/04/09 04:49:46;;;;;;;;;;;20.50;43.60;;;;;;5069982;28;20007;-53
2023/04/09 04:52:11;;;;;;;;;;;20.60;43.50;;;;;;5090949;28;19908;-54
2023/04/09 04:54:37;;;;;;;;;;;20.60;43.50;;;;;;5076055;28;19916;-54
2023/04/09 04:57:02;;;;;;;;;;;20.60;43.50;;;;;;5061048;28;19963;-54
2023/04/09 04:59:28;;;;;;;;;;;20.50;43.60;;;;;;5066353;28;19924;-54
2023/04/09 05:01:53;;;;;;;;;;;20.40;43.80;;;;;;5062956;28;19919;-54
2023/04/09 05:04:19;;;;;;;;;;;20.40;44.50;;;;;;5074771;28;20358;-54
2023/04/09 05:06:44;;;;;;;;;;;20.30;44.00;;;;;;5080969;28;19923;-54
2023/04/09 05:09:10;;;;;;;;;;;20.30;44.20;;;;;;5074634;28;19983;-54
2023/04/09 05:11:35;;;;;;;;;;;20.30;44.30;;;;;;5057468;28;20312;-54
2023/04/09 05:14:00;;;;;;;;;;;20.20;44.30;;;;;;5068365;28;20261;-55
2023/04/09 05:16:26;;;;;;;;;;;20.20;44.30;;;;;;5094106;28;19951;-54
2023/04/09 05:18:51;;;;;;;;;;;20.20;44.40;;;;;;5081373;28;19923;-55
2023/04/09 05:21:17;;;;;;;;;;;20.20;44.40;;;;;;5074601;28;19921;-54
2023/04/09 05:23:42;;;;;;;;;;;20.20;44.30;;;;;;5074448;28;19916;-54
2023/04/09 05:26:08;;;;;;;;;;;20.20;44.30;;;;;;5064127;28;19919;-54
2023/04/09 05:28:33;;;;;;;;;;;20.20;44.40;;;;;;5072201;28;20299;-54
2023/04/09 05:30:59;;;;;;;;;;;20.10;44.50;;;;;;5073014;28;20360;-54
2023/04/09 05:33:24;;;;;;;;;;;20.10;44.50;;;;;;5074034;28;19916;-54
2023/04/09 05:35:50;;;;;;;;;;;20.00;44.50;;;;;;5074054;28;19997;-54
2023/04/09 05:38:15;;;;;;;;;;;20.10;44.50;;;;;;5076092;28;19917;-54
2023/04/09 05:40:43;;;;;;;;;;;20.20;44.40;;;;;;5055715;28;20254;-55
2023/04/09 05:43:08;;;;;;;;;;;20.30;44.10;;;;;;5060774;28;20388;-54
2023/04/09 05:45:34;;;;;;;;;;;20.40;43.80;;;;;;5073340;28;19966;-54
2023/04/09 05:48:00;;;;;;;;;;;20.60;43.70;;;;;;5070597;28;19923;-55
2023/04/09 05:50:26;;;;;;;;;;;20.70;43.60;;;;;;5069284;28;19913;-54
2023/04/09 05:52:51;;;;;;;;;;;20.70;43.40;;;;;;5074019;28;19908;-56
2023/04/09 05:55:17;;;;;;;;;;;20.80;43.30;;;;;;5070090;28;19917;-54
2023/04/09 05:57:44;;;;;;;;;;;20.80;43.30;;;;;;5081759;28;20428;-54
2023/04/09 06:00:10;;;;;;;;;;;20.80;43.30;;;;;;5072439;28;19916;-54
2023/04/09 06:02:35;;;;;;;;;;;20.80;43.30;;;;;;5066753;28;19999;-54
2023/04/09 06:05:01;;;;;;;;;;;20.70;43.40;;;;;;5057108;28;19913;-54
2023/04/09 06:07:26;;;;;;;;;;;20.60;43.50;;;;;;5072203;28;19915;-54
2023/04/09 06:09:52;;;;;;;;;;;20.50;44.30;;;;;;5059930;28;19958;-54
2023/04/09 06:12:18;;;;;;;;;;;20.40;43.80;;;;;;5073482;28;20407;-54
2023/04/09 06:14:43;;;;;;;;;;;20.30;44.10;;;;;;5069052;28;20715;-54
2023/04/09 06:17:08;;;;;;;;;;;20.30;44.30;;;;;;5070943;28;20341;-54
2023/04/09 06:19:34;;;;;;;;;;;20.20;44.50;;;;;;5079260;28;19926;-54
2023/04/09 06:21:59;;;;;;;;;;;20.10;44.50;;;;;;5073197;28;19966;-54
2023/04/09 06:24:25;;;;;;;;;;;20.00;44.70;;;;;;5072881;28;19942;-54
2023/04/09 06:26:50;;;;;;;;;;;19.90;44.80;;;;;;5064295;28;19916;-54
2023/04/09 06:29:16;;;;;;;;;;;19.90;44.80;;;;;;5060534;28;19936;-54
2023/04/09 06:31:42;;;;;;;;;;;19.90;44.80;;;;;;5070660;28;19916;-55
2023/04/09 06:34:07;;;;;;;;;;;20.00;44.90;;;;;;5071515;28;19916;-54
2023/04/09 06:36:33;;;;;;;;;;;20.00;44.70;;;;;;5053258;28;19913;-54
2023/04/09 06:38:59;;;;;;;;;;;20.10;44.50;;;;;;5061219;28;19924;-55
2023/04/09 06:41:25;;;;;;;;;;;20.20;44.50;;;;;;5069413;28;19942;-54
2023/04/09 06:43:51;;;;;;;;;;;20.40;44.80;;;;;;5051409;28;19913;-54
2023/04/09 06:46:18;;;;;;;;;;;20.50;43.90;;;;;;5057271;28;20003;-55
2023/04/09 06:48:44;;;;;;;;;;;20.60;43.70;;;;;;5066222;28;19913;-55
2023/04/09 06:51:10;;;;;;;;;;;20.70;43.70;;;;;;5072770;28;19999;-54
2023/04/09 06:53:36;;;;;;;;;;;20.70;43.60;;;;;;5072503;28;19913;-56
2023/04/09 06:56:01;;;;;;;;;;;20.60;43.60;;;;;;5072247;28;19960;-55
2023/04/09 06:58:27;;;;;;;;;;;20.60;43.70;;;;;;5075768;28;19955;-54
2023/04/09 07:00:52;;;;;;;;;;;20.50;43.90;;;;;;5062792;28;19924;-54
2023/04/09 07:03:18;;;;;;;;;;;20.30;44.00;;;;;;5073346;28;19960;-54
2023/04/09 07:05:43;;;;;;;;;;;20.30;44.40;;;;;;5071801;28;19916;-54
2023/04/09 07:08:09;;;;;;;;;;;20.20;44.50;;;;;;5070899;28;19908;-54
2023/04/09 07:10:34;;;;;;;;;;;20.10;44.50;;;;;;5081465;28;19923;-54
2023/04/09 07:13:00;;;;;;;;;;;20.00;44.50;;;;;;5092849;28;20041;-54
2023/04/09 07:15:25;;;;;;;;;;;20.00;44.80;;;;;;5067535;28;19913;-54
2023/04/09 07:17:51;;;;;;;;;;;19.90;44.90;;;;;;5061431;28;19916;-55
2023/04/09 07:20:16;;;;;;;;;;;19.90;44.90;;;;;;5066789;28;20421;-54
2023/04/09 07:22:42;;;;;;;;;;;19.90;44.80;;;;;;5078168;28;19916;-55
2023/04/09 07:25:07;;;;;;;;;;;20.00;44.90;;;;;;5071915;28;19976;-54
2023/04/09 07:27:33;;;;;;;;;;;20.00;44.80;;;;;;5071203;28;19913;-54
2023/04/09 07:29:59;;;;;;;;;;;20.00;44.70;;;;;;5070299;28;19919;-54
2023/04/09 07:32:25;;;;;;;;;;;20.10;44.60;;;;;;5069330;28;20372;-54
2023/04/09 07:34:51;;;;;;;;;;;20.20;44.60;;;;;;5084606;28;19943;-54
2023/04/09 07:37:17;;;;;;;;;;;20.30;44.20;;;;;;5061437;28;19959;-54
2023/04/09 07:39:42;;;;;;;;;;;20.50;44.10;;;;;;5071597;28;20439;-54
2023/04/09 07:42:07;;;;;;;;;;;20.60;43.90;;;;;;5061881;28;19923;-55
2023/04/09 07:44:33;;;;;;;;;;;20.60;43.90;;;;;;5075397;28;19999;-54
2023/04/09 07:46:59;;;;;;;;;;;20.50;43.80;;;;;;5070387;28;20000;-54
2023/04/09 07:49:25;;;;;;;;;;;20.50;43.90;;;;;;5069983;28;19917;-54
2023/04/09 07:51:50;;;;;;;;;;;20.40;44.00;;;;;;5071547;28;19918;-54
2023/04/09 07:54:16;;;;;;;;;;;20.40;44.20;;;;;;5066889;28;19952;-54
2023/04/09 07:56:41;;;;;;;;;;;20.30;44.40;;;;;;5071197;28;20328;-54
2023/04/09 07:59:07;;;;;;;;;;;20.20;44.50;;;;;;5060793;28;19916;-54
2023/04/09 08:01:32;;;;;;;;;;;20.20;44.60;;;;;;5068334;28;19924;-54
2023/04/09 08:03:58;;;;;;;;;;;20.10;44.50;;;;;;5069916;28;19916;-54
2023/04/09 08:06:23;;;;;;;;;;;20.10;44.50;;;;;;5074580;28;19948;-54
2023/04/09 08:08:49;;;;;;;;;;;20.10;44.60;;;;;;5087164;28;19936;-55
2023/04/09 08:11:14;;;;;;;;;;;20.10;44.60;;;;;;5071797;28;20007;-54
2023/04/09 08:13:40;;;;;;;;;;;20.10;44.60;;;;;;5071599;28;19920;-54
2023/04/09 08:16:06;;;;;;;;;;;20.10;44.50;;;;;;5086597;28;19909;-54
2023/04/09 08:18:31;;;;;;;;;;;20.10;44.50;;;;;;5074424;28;19912;-54
2023/04/09 08:20:56;;;;;;;;;;;20.10;44.70;;;;;;5076520;28;19932;-55
2023/04/09 08:23:22;;;;;;;;;;;20.00;44.90;;;;;;5069419;28;19919;-54
2023/04/09 08:25:47;;;;;;;;;;;19.90;45.00;;;;;;5071827;28;19916;-54
2023/04/09 08:28:13;;;;;;;;;;;20.00;44.90;;;;;;5064275;28;19913;-54
2023/04/09 08:30:38;;;;;;;;;;;20.10;44.70;;;;;;5052008;28;19916;-54
2023/04/09 08:33:04;;;;;;;;;;;20.20;44.60;;;;;;5071393;28;19923;-55
2023/04/09 08:35:29;;;;;;;;;;;20.30;44.40;;;;;;5091766;28;19908;-54
2023/04/09 08:37:55;;;;;;;;;;;20.40;44.20;;;;;;5084649;28;19961;-55
2023/04/09 08:40:21;;;;;;;;;;;20.50;44.10;;;;;;5070423;28;20277;-54
2023/04/09 08:42:46;;;;;;;;;;;20.50;44.10;;;;;;5071240;28;19913;-54
2023/04/09 08:45:12;;;;;;;;;;;20.50;44.00;;;;;;5070040;28;20007;-54
2023/04/09 08:47:38;;;;;;;;;;;20.50;44.00;;;;;;5060883;28;19928;-54
2023/04/09 08:50:04;;;;;;;;;;;20.50;44.10;;;;;;5062820;28;19959;-54
2023/04/09 08:52:33;;;;;;;;;;;20.40;44.20;;;;;;5073891;28;19912;-54
2023/04/09 08:54:58;;;;;;;;;;;20.30;44.20;;;;;;5072895;28;19913;-54
2023/04/09 08:57:24;;;;;;;;;;;20.30;44.50;;;;;;5055175;28;19913;-54
2023/04/09 08:59:49;;;;;;;;;;;20.20;44.60;;;;;;5060689;28;19924;-54
2023/04/09 09:02:15;;;;;;;;;;;20.20;44.60;;;;;;5067992;28;19923;-54
2023/04/09 09:04:47;;;;;;;;;;;20.10;44.70;;;;;;5070199;28;19912;-54
2023/04/09 09:07:12;;;;;;;;;;;20.10;44.80;;;;;;5073358;28;20451;-54
2023/04/09 09:09:57;;;;;;;;;;;20.10;44.90;;;;;;5058461;28;19917;-55
2023/04/09 09:12:52;;;;;;;;;;;20.10;45.10;;;;;;5074752;28;19973;-56
2023/04/09 09:15:25;;;;;;;;;;;20.10;45.70;;;;;;5069210;28;20376;-54
2023/04/09 09:17:54;;;;;;;;;;;20.00;45.20;;;;;;5060709;28;19912;-54
2023/04/09 09:20:20;;;;;;;;;;;20.00;45.20;;;;;;5081956;28;20347;-54
2023/04/09 09:22:49;;;;;;;;;;;19.90;45.30;;;;;;5084489;28;19944;-54
2023/04/09 09:25:15;;;;;;;;;;;20.00;45.30;;;;;;5071863;28;20411;-54
2023/04/09 09:27:41;;;;;;;;;;;20.00;45.10;;;;;;5073387;28;19919;-54
2023/04/09 09:30:07;;;;;;;;;;;20.10;45.10;;;;;;5066621;28;19913;-54
2023/04/09 09:32:33;;;;;;;;;;;20.10;45.00;;;;;;5066825;28;19923;-54
2023/04/09 09:35:04;;;;;;;;;;;20.20;44.90;;;;;;5073195;28;19913;-54
2023/04/09 09:37:30;;;;;;;;;;;20.20;44.90;;;;;;5061254;28;19913;-54
2023/04/09 09:39:56;;;;;;;;;;;20.20;44.80;;;;;;5072553;28;19928;-54
2023/04/09 09:42:21;;;;;;;;;;;20.20;44.90;;;;;;5069411;28;19916;-54
2023/04/09 09:44:47;;;;;;;;;;;20.20;45.20;;;;;;5073108;28;20392;-54
2023/04/09 09:47:13;;;;;;;;;;;20.10;45.20;;;;;;4992278;28;19926;-54
2023/04/09 09:49:38;;;;;;;;;;;20.00;45.20;;;;;;5026254;28;19910;-54
2023/04/09 09:52:07;;;;;;;;;;;20.00;45.30;;;;;;4994753;28;20012;-54
2023/04/09 09:54:37;;;;;;;;;;;20.00;45.30;;;;;;4994406;28;19914;-54
2023/04/09 09:57:03;;;;;;;;;;;20.10;45.40;;;;;;4995154;28;19972;-54
2023/04/09 09:59:29;;;;;;;;;;;20.10;45.20;;;;;;4992679;28;20366;-54
2023/04/09 10:01:58;;;;;;;;;;;20.10;45.10;;;;;;4992498;28;19988;-54
2023/04/09 10:04:24;;;;;;;;;;;20.20;45.10;;;;;;4991142;28;19956;-54
2023/04/09 10:06:49;;;;;;;;;;;20.30;44.90;;;;;;4991734;28;20334;-54
2023/04/09 10:09:15;;;;;;;;;;;20.30;44.70;;;;;;4989030;28;19924;-54
2023/04/09 10:11:46;;;;;;;;;;;20.30;44.70;;;;;;5005540;28;19918;-54
2023/04/09 10:14:12;;;;;;;;;;;20.30;44.80;;;;;;4999030;28;19914;-54
2023/04/09 10:16:37;;;;;;;;;;;20.30;44.90;;;;;;4994463;28;19928;-54
2023/04/09 10:19:03;;;;;;;;;;;20.20;45.00;;;;;;4992515;28;19921;-54
2023/04/09 10:21:34;;;;;;;;;;;20.20;45.20;;;;;;4989204;28;20370;-55
2023/04/09 10:24:00;;;;;;;;;;;20.10;45.20;;;;;;4989938;28;19922;-54
2023/04/09 10:26:26;;;;;;;;;;;20.10;45.20;;;;;;5003622;28;19922;-54
2023/04/09 10:29:05;;;;;;;;;;;20.10;45.30;;;;;;4992274;28;20266;-54
2023/04/09 10:31:50;;;;;;;;;;;20.00;45.30;;;;;;4992948;28;19961;-54
2023/04/09 10:34:22;;;;;;;;;;;19.90;45.60;;;;;;4989558;28;19917;-54
2023/04/09 10:36:48;;;;;;;;;;;19.90;45.90;;;;;;4999325;28;20008;-54
2023/04/09 10:39:14;;;;;;;;;;;19.90;45.90;;;;;;4995556;28;19917;-54
2023/04/09 10:41:40;;;;;;;;;;;19.90;45.90;;;;;;4989436;28;19921;-54
2023/04/09 10:44:06;;;;;;;;;;;19.90;45.90;;;;;;4985923;28;20378;-54
2023/04/09 10:46:35;;;;;;;;;;;19.90;45.90;;;;;;5020019;28;19921;-54
2023/04/09 10:49:07;;;;;;;;;;;19.90;45.90;;;;;;4992068;28;19921;-54
2023/04/09 10:51:34;;;;;;;;;;;20.00;45.90;;;;;;4992601;28;19924;-55
2023/04/09 10:53:59;;;;;;;;;;;20.00;45.90;;;;;;4994334;28;20360;-54
2023/04/09 10:56:25;;;;;;;;;;;20.00;45.80;;;;;;4993739;28;20029;-54
2023/04/09 10:58:50;;;;;;;;;;;20.10;45.80;;;;;;4993174;28;20375;-54
2023/04/09 11:01:20;;;;;;;;;;;20.10;45.80;;;;;;4991904;28;19921;-54
2023/04/09 11:03:46;;;;;;;;;;;20.00;46.60;;;;;;4998889;28;19968;-54
2023/04/09 11:06:12;;;;;;;;;;;20.00;46.10;;;;;;5023517;28;19917;-54
2023/04/09 11:08:37;;;;;;;;;;;19.90;46.30;;;;;;5008138;28;20349;-54
2023/04/09 11:11:03;;;;;;;;;;;19.90;46.20;;;;;;4992641;28;19910;-55
2023/04/09 11:13:29;;;;;;;;;;;19.90;46.10;;;;;;5006923;28;19918;-54
2023/04/09 11:15:54;;;;;;;;;;;20.00;46.30;;;;;;5003001;28;19965;-54
2023/04/09 11:18:27;;;;;;;;;;;20.10;46.30;;;;;;4991655;28;19922;-54
2023/04/09 11:20:56;;;;;;;;;;;20.20;46.10;;;;;;4986261;28;19925;-54
2023/04/09 11:23:21;;;;;;;;;;;20.20;46.20;;;;;;4992468;28;19914;-54
2023/04/09 11:25:47;;;;;;;;;;;20.30;46.10;;;;;;5025142;28;19944;-54
2023/04/09 11:28:13;;;;;;;;;;;20.40;45.90;;;;;;4988939;28;20383;-54
2023/04/09 11:30:38;;;;;;;;;;;20.40;45.80;;;;;;4992530;28;19913;-54
2023/04/09 11:33:03;;;;;;;;;;;20.50;45.80;;;;;;4996567;28;19964;-54
2023/04/09 11:35:29;;;;;;;;;;;20.60;46.00;;;;;;4990382;28;19971;-54
2023/04/09 11:37:54;;;;;;;;;;;20.60;45.70;;;;;;4990516;28;20592;-54
2023/04/09 11:40:21;;;;;;;;;;;20.60;45.70;;;;;;4991386;28;19988;-54
2023/04/09 11:42:50;;;;;;;;;;;20.70;45.80;;;;;;4991903;28;20267;-54
2023/04/09 11:45:16;;;;;;;;;;;20.70;46.10;;;;;;4991561;28;19924;-54
2023/04/09 11:47:41;;;;;;;;;;;20.70;46.30;;;;;;4991852;28;20004;-55
2023/04/09 11:50:07;;;;;;;;;;;20.70;46.20;;;;;;5023070;28;19984;-54
2023/04/09 11:52:34;;;;;;;;;;;20.70;46.20;;;;;;4990410;28;20305;-55
2023/04/09 11:55:09;;;;;;;;;;;20.70;46.60;;;;;;5000563;28;19918;-55
2023/04/09 11:57:55;;;;;;;;;;;20.60;46.70;;;;;;4994938;28;19914;-55
2023/04/09 12:00:20;;;;;;;;;;;20.60;46.60;;;;;;4988850;28;19918;-54
2023/04/09 12:02:47;;;;;;;;;;;20.60;46.70;;;;;;4990686;28;20501;-54
2023/04/09 12:05:19;;;;;;;;;;;20.60;46.70;;;;;;4993425;28;20230;-54
2023/04/09 12:07:45;;;;;;;;;;;20.70;47.20;;;;;;4992501;28;20286;-55
2023/04/09 12:10:10;;;;;;;;;;;20.70;46.70;;;;;;4987605;28;19921;-55
2023/04/09 12:12:42;;;;;;;;;;;20.70;46.70;;;;;;4987140;28;19913;-55
2023/04/09 12:15:12;;;;;;;;;;;20.70;46.50;;;;;;4986671;28;20458;-55
2023/04/09 12:17:37;;;;;;;;;;;20.70;46.50;;;;;;4991012;28;19913;-54
2023/04/09 12:20:03;;;;;;;;;;;20.70;46.80;;;;;;4993839;28;19918;-55
2023/04/09 12:22:28;;;;;;;;;;;20.80;46.90;;;;;;4987763;28;19918;-55
2023/04/09 12:24:54;;;;;;;;;;;20.70;46.90;;;;;;4986152;28;19913;-55
2023/04/09 12:27:19;;;;;;;;;;;20.70;46.70;;;;;;4986055;28;19937;-55
2023/04/09 12:29:45;;;;;;;;;;;20.70;46.80;;;;;;4990787;28;19945;-54
2023/04/09 12:32:10;;;;;;;;;;;20.70;46.60;;;;;;4994499;28;20297;-55
2023/04/09 12:34:36;;;;;;;;;;;20.80;46.60;;;;;;5027150;28;19922;-54
2023/04/09 12:37:01;;;;;;;;;;;20.90;46.80;;;;;;4990590;28;19914;-55
2023/04/09 12:39:27;;;;;;;;;;;20.90;46.80;;;;;;4994485;28;20326;-54
2023/04/09 12:41:53;;;;;;;;;;;21.00;46.90;;;;;;4996429;28;19918;-54
2023/04/09 12:44:18;;;;;;;;;;;21.00;46.80;;;;;;5001344;28;19918;-54
2023/04/09 12:46:44;;;;;;;;;;;21.00;46.70;;;;;;5003252;28;19914;-54
2023/04/09 12:49:09;;;;;;;;;;;21.10;46.60;;;;;;4995973;28;19937;-54
2023/04/09 12:51:35;;;;;;;;;;;21.10;46.70;;;;;;5010946;28;20366;-54
2023/04/09 12:54:02;;;;;;;;;;;21.10;46.60;;;;;;5003726;28;19914;-54
2023/04/09 12:56:28;;;;;;;;;;;21.10;46.40;;;;;;5002500;28;20020;-54
2023/04/09 12:58:53;;;;;;;;;;;21.10;46.70;;;;;;4994872;28;19990;-54
2023/04/09 13:01:19;;;;;;;;;;;21.10;46.60;;;;;;4995286;28;19913;-54
2023/04/09 13:03:44;;;;;;;;;;;21.10;46.40;;;;;;4995074;28;19914;-53
2023/04/09 13:06:10;;;;;;;;;;;21.10;46.80;;;;;;5011654;28;19975;-55
2023/04/09 13:08:35;;;;;;;;;;;21.00;46.80;;;;;;5015488;28;19922;-54
2023/04/09 13:11:01;;;;;;;;;;;21.00;46.80;;;;;;4991799;28;19914;-54
2023/04/09 13:13:27;;;;;;;;;;;21.00;46.90;;;;;;5007131;28;20395;-52
2023/04/09 13:15:52;;;;;;;;;;;21.00;46.70;;;;;;4995933;28;20371;-54
2023/04/09 13:18:18;;;;;;;;;;;21.00;46.70;;;;;;4991422;28;19932;-55
2023/04/09 13:20:43;;;;;;;;;;;21.00;46.50;;;;;;4988182;28;19992;-54
2023/04/09 13:23:09;;;;;;;;;;;20.90;46.90;;;;;;4994783;28;19913;-55
2023/04/09 13:25:34;;;;;;;;;;;21.00;46.90;;;;;;5003815;28;19914;-53
2023/04/09 13:28:00;;;;;;;;;;;21.00;46.80;;;;;;4990739;28;19918;-54
2023/04/09 13:30:25;;;;;;;;;;;21.00;46.60;;;;;;4992994;28;19972;-54
2023/04/09 13:32:51;;;;;;;;;;;21.10;46.70;;;;;;4992738;28;19917;-54
2023/04/09 13:35:17;;;;;;;;;;;21.20;46.50;;;;;;4990413;28;19948;-53
2023/04/09 13:37:43;;;;;;;;;;;21.20;46.20;;;;;;4986893;28;19917;-54
2023/04/09 13:40:09;;;;;;;;;;;21.20;46.50;;;;;;4984830;28;20378;-54
2023/04/09 13:42:36;;;;;;;;;;;21.20;46.40;;;;;;4993234;28;19965;-54
2023/04/09 13:45:02;;;;;;;;;;;21.20;46.60;;;;;;4992552;28;19913;-53
2023/04/09 13:47:27;;;;;;;;;;;21.20;46.50;;;;;;4991524;28;20286;-53
2023/04/09 13:49:53;;;;;;;;;;;21.20;46.40;;;;;;4990068;28;19986;-54
2023/04/09 13:52:18;;;;;;;;;;;21.20;46.30;;;;;;5005451;28;20075;-54
2023/04/09 13:54:44;;;;;;;;;;;21.20;46.40;;;;;;4982093;28;19941;-54
2023/04/09 13:57:09;;;;;;;;;;;21.20;46.30;;;;;;4993048;28;19961;-54
2023/04/09 13:59:35;;;;;;;;;;;21.30;46.10;;;;;;4987308;28;19988;-54
2023/04/09 14:02:00;;;;;;;;;;;21.40;46.20;;;;;;4978346;28;19920;-54
2023/04/09 14:04:26;;;;;;;;;;;21.40;46.40;;;;;;4992318;28;20429;-54
2023/04/09 14:06:51;;;;;;;;;;;21.40;46.40;;;;;;4988360;28;20339;-58
2023/04/09 14:09:17;;;;;;;;;;;21.40;46.30;;;;;;5003877;28;19918;-55
2023/04/09 14:11:42;;;;;;;;;;;21.40;46.20;;;;;;5000614;28;20456;-54